Star Care — 9V9352 — position and weather

sailwx.info

Track history (hours):
 
Tides and Currents Weather Stations Pressure Air Temp Water Temp Dewpoint Dewpoint Depression Visibility Wind Speed Wind Dir Waves Ship Positions

Star Care

Last reported at 2017-Nov-03 18:45 UTC. Time now 2017-Nov-19 05:06 UTC.
Position N 32°21' W 117°41'.
Warning: this ship's position is 15 days out of date.

Length 163 m; draft 7.7 m.

Type: Ship. MMSI: 566341000.

Date/timePositionNaut miles runAvg speedWind from/ knotsBaromVisibWave heightAir tempDewpointWater temp
2017-Nov-03 18:45N 32°21' W 117°41'520.5
2017-Nov-03 18:31N 32°25' W 117°43'1119.6
2017-Nov-03 17:56N 32°36' W 117°48'819.5
2017-Nov-03 17:31N 32°44' W 117°51'1120.7
2017-Nov-03 16:59N 32°54' W 117°56'1020.9
2017-Nov-03 16:31N 33°03' W 117°60'1020.9
2017-Nov-03 16:01N 33°13' W 118°04'27 1.7
2017-Nov-03 00:37N 33°39' W 118°11'1 3.2
2017-Nov-03 00:26N 33°38' W 118°11'10 8.3
2017-Nov-02 23:16N 33°37' W 118°22'413.5
2017-Nov-02 23:00N 33°39' W 118°26'815.1
2017-Nov-02 22:30N 33°43' W 118°34'815.5
2017-Nov-02 22:00N 33°46' W 118°42'815.8
2017-Nov-02 21:30N 33°50' W 118°50'815.8
2017-Nov-02 21:00N 33°54' W 118°58'815.6
2017-Nov-02 20:30N 33°58' W 119°06'815.2
2017-Nov-02 20:00N 34°02' W 119°14'611.9
2017-Nov-02 19:30N 34°08' W 119°13'1 0.2
2017-Nov-02 13:07N 34°09' W 119°12'0 0.0
2017-Nov-02 06:55N 34°09' W 119°12'0 0.0
2017-Nov-02 04:28N 34°09' W 119°12'0 0.0
2017-Nov-02 03:58N 34°09' W 119°12'0 0.0
2017-Nov-02 03:16N 34°09' W 119°12'0 0.0
2017-Nov-02 02:04N 34°09' W 119°12'0 0.0
2017-Nov-02 01:52N 34°09' W 119°12'0 0.0
2017-Nov-01 22:40N 34°09' W 119°12'0 0.0
2017-Oct-31 19:41N 34°09' W 119°12'0 0.0
2017-Oct-31 19:08N 34°09' W 119°12'0 0.0
2017-Oct-31 18:59N 34°09' W 119°12'0 0.0
2017-Oct-31 18:29N 34°09' W 119°12'0 0.0
2017-Oct-31 16:10N 34°09' W 119°12'0 0.3
2017-Oct-31 15:59N 34°09' W 119°12'3 5.7
2017-Oct-31 15:30N 34°07' W 119°15'3 5.6
2017-Oct-31 14:59N 34°04' W 119°14'4 7.1
2017-Oct-31 14:27N 34°01' W 119°11'610.9
2017-Oct-31 13:55N 33°56' W 119°10'716.1
2017-Oct-31 13:30N 33°50' W 119°05'918.6
2017-Oct-31 13:00N 33°43' W 118°58'1019.1
2017-Oct-31 12:30N 33°35' W 118°51'1019.1
2017-Oct-31 12:00N 33°27' W 118°44'6319.1
2017-Oct-31 08:41N 32°36' W 117°59'2819.1
2017-Oct-31 07:14N 32°12' W 117°45'418.7
2017-Oct-31 07:00N 32°08' W 117°43'2518.6
2017-Oct-31 05:40N 31°45' W 117°31'817.8
2017-Oct-31 05:14N 31°38' W 117°28'818.7
2017-Oct-31 04:47N 31°30' W 117°24'518.9
2017-Oct-31 04:30N 31°25' W 117°22'918.8
2017-Oct-31 04:00N 31°16' W 117°18'1018.9
2017-Oct-31 03:29N 31°07' W 117°13'3419.2
2017-Oct-31 01:42N 30°36' W 116°58'1019.5
2017-Oct-31 01:12N 30°27' W 116°53'419.5
2017-Oct-31 01:00N 30°23' W 116°52'62918.7
2017-Oct-29 15:23N 22°08' W 109°39'  
Track history (hours):
 
Tides and Currents Weather Stations Pressure Air Temp Water Temp Dewpoint Dewpoint Depression Visibility Wind Speed Wind Dir Waves Ship Positions

Star Care

Last reported at 2017-Nov-03 18:45 UTC. Time now 2017-Nov-19 05:06 UTC.
Position N 32°21' W 117°41'.
Warning: this ship's position is 15 days out of date.

Length 163 m; draft 7.7 m.

Type: Ship. MMSI: 566341000.

Date/timePositionNaut miles runAvg speedWind from/ knotsBaromVisibWave heightAir tempDewpointWater temp
2017-Nov-03 18:45N 32°21' W 117°41'520.5
2017-Nov-03 18:31N 32°25' W 117°43'1119.6
2017-Nov-03 17:56N 32°36' W 117°48'819.5
2017-Nov-03 17:31N 32°44' W 117°51'1120.7
2017-Nov-03 16:59N 32°54' W 117°56'1020.9
2017-Nov-03 16:31N 33°03' W 117°60'1020.9
2017-Nov-03 16:01N 33°13' W 118°04'27 1.7
2017-Nov-03 00:37N 33°39' W 118°11'1 3.2
2017-Nov-03 00:26N 33°38' W 118°11'10 8.3
2017-Nov-02 23:16N 33°37' W 118°22'413.5
2017-Nov-02 23:00N 33°39' W 118°26'815.1
2017-Nov-02 22:30N 33°43' W 118°34'815.5
2017-Nov-02 22:00N 33°46' W 118°42'815.8
2017-Nov-02 21:30N 33°50' W 118°50'815.8
2017-Nov-02 21:00N 33°54' W 118°58'815.6
2017-Nov-02 20:30N 33°58' W 119°06'815.2
2017-Nov-02 20:00N 34°02' W 119°14'611.9
2017-Nov-02 19:30N 34°08' W 119°13'1 0.2
2017-Nov-02 13:07N 34°09' W 119°12'0 0.0
2017-Nov-02 06:55N 34°09' W 119°12'0 0.0
2017-Nov-02 04:28N 34°09' W 119°12'0 0.0
2017-Nov-02 03:58N 34°09' W 119°12'0 0.0
2017-Nov-02 03:16N 34°09' W 119°12'0 0.0
2017-Nov-02 02:04N 34°09' W 119°12'0 0.0
2017-Nov-02 01:52N 34°09' W 119°12'0 0.0
2017-Nov-01 22:40N 34°09' W 119°12'0 0.0
2017-Oct-31 19:41N 34°09' W 119°12'0 0.0
2017-Oct-31 19:08N 34°09' W 119°12'0 0.0
2017-Oct-31 18:59N 34°09' W 119°12'0 0.0
2017-Oct-31 18:29N 34°09' W 119°12'0 0.0
2017-Oct-31 16:10N 34°09' W 119°12'0 0.3
2017-Oct-31 15:59N 34°09' W 119°12'3 5.7
2017-Oct-31 15:30N 34°07' W 119°15'3 5.6
2017-Oct-31 14:59N 34°04' W 119°14'4 7.1
2017-Oct-31 14:27N 34°01' W 119°11'610.9
2017-Oct-31 13:55N 33°56' W 119°10'716.1
2017-Oct-31 13:30N 33°50' W 119°05'918.6
2017-Oct-31 13:00N 33°43' W 118°58'1019.1
2017-Oct-31 12:30N 33°35' W 118°51'1019.1
2017-Oct-31 12:00N 33°27' W 118°44'6319.1
2017-Oct-31 08:41N 32°36' W 117°59'2819.1
2017-Oct-31 07:14N 32°12' W 117°45'418.7
2017-Oct-31 07:00N 32°08' W 117°43'2518.6
2017-Oct-31 05:40N 31°45' W 117°31'817.8
2017-Oct-31 05:14N 31°38' W 117°28'818.7
2017-Oct-31 04:47N 31°30' W 117°24'518.9
2017-Oct-31 04:30N 31°25' W 117°22'918.8
2017-Oct-31 04:00N 31°16' W 117°18'1018.9
2017-Oct-31 03:29N 31°07' W 117°13'3419.2
2017-Oct-31 01:42N 30°36' W 116°58'1019.5
2017-Oct-31 01:12N 30°27' W 116°53'419.5
2017-Oct-31 01:00N 30°23' W 116°52'62918.7
2017-Oct-29 15:23N 22°08' W 109°39'  

Dump ship's entire track history